Time;durP1;ratioP1;P1;durP2;ratioP2;P2;SDS_P1;SDS_P2;PMS_P1;PMS_P2;Temp;Humidity;BMP_temperature;BMP_pressure;BME280_temperature;BME280_humidity;BME280_pressure;Samples;Min_cycle;Max_cycle;Signal;HPM_P1;HPM_P2
2023/12/16 00:00:09;;;;;;;0.20;0.20;;;;;;;5.16;80.44;102858.00;4974330;28;20153;-90
2023/12/16 00:02:35;;;;;;;0.20;0.20;;;;;;;4.97;79.46;102831.31;4958457;28;20066;-89
2023/12/16 00:05:00;;;;;;;0.20;0.20;;;;;;;5.02;79.77;102837.38;4974413;28;20054;-89
2023/12/16 00:07:26;;;;;;;0.20;0.20;;;;;;;5.09;79.87;102854.53;4958589;28;20037;-89
2023/12/16 00:09:52;;;;;;;0.20;0.20;;;;;;;5.02;80.58;102847.63;4958609;28;20084;-89
2023/12/16 00:12:17;;;;;;;0.20;0.20;;;;;;;5.07;80.64;102871.63;4974371;28;20034;-89
2023/12/16 00:14:43;;;;;;;0.20;0.20;;;;;;;5.06;80.49;102864.75;4974486;28;20030;-89
2023/12/16 00:17:08;;;;;;;0.20;0.20;;;;;;;5.02;80.11;102852.75;4958028;28;20623;-90
2023/12/16 00:19:34;;;;;;;0.20;0.20;;;;;;;5.05;80.32;102878.44;4990454;28;20037;-89
2023/12/16 00:22:00;;;;;;;0.20;0.20;;;;;;;5.01;79.84;102876.66;4958436;28;20045;-88
2023/12/16 00:24:25;;;;;;;0.20;0.20;;;;;;;5.03;80.17;102879.28;4958037;28;20129;-90
2023/12/16 00:26:51;;;;;;;0.20;0.20;;;;;;;4.94;79.89;102856.09;4974256;28;20030;-89
2023/12/16 00:29:16;;;;;;;0.20;0.20;;;;;;;4.95;80.46;102880.91;4957155;28;20031;-89
2023/12/16 00:31:43;;;;;;;0.10;0.10;;;;;;;4.97;79.91;102885.19;4973879;28;20054;-87
2023/12/16 00:34:09;;;;;;;0.20;0.20;;;;;;;4.85;80.44;102880.81;4974252;28;20081;-90
2023/12/16 00:36:34;;;;;;;0.20;0.20;;;;;;;4.87;81.11;102891.94;4974288;28;20038;-90
2023/12/16 00:39:00;;;;;;;0.20;0.20;;;;;;;4.85;80.99;102891.06;4958432;28;20035;-89
2023/12/16 00:41:25;;;;;;;0.20;0.20;;;;;;;4.69;79.90;102871.22;4957495;28;20026;-90
2023/12/16 00:43:51;;;;;;;0.20;0.20;;;;;;;4.62;80.68;102871.97;4974162;28;20146;-89
2023/12/16 00:46:17;;;;;;;0.20;0.20;;;;;;;4.75;80.56;102901.19;4973617;28;20081;-88
2023/12/16 00:48:43;;;;;;;0.20;0.20;;;;;;;4.68;81.48;102897.69;4958116;28;20046;-88
2023/12/16 00:51:08;;;;;;;0.20;0.20;;;;;;;4.81;81.16;102907.25;4974281;28;20516;-89
2023/12/16 00:53:34;;;;;;;0.20;0.20;;;;;;;4.86;81.02;102913.31;4974312;28;20050;-88
2023/12/16 00:55:59;;;;;;;0.20;0.20;;;;;;;4.83;79.95;102905.56;4973700;28;20542;-89
2023/12/16 00:58:25;;;;;;;0.20;0.20;;;;;;;4.63;79.89;102883.13;4991508;28;20061;-89
2023/12/16 01:00:50;;;;;;;0.20;0.20;;;;;;;4.72;79.74;102889.22;4990454;28;20066;-90
2023/12/16 01:03:16;;;;;;;0.20;0.20;;;;;;;4.66;80.06;102899.38;4973737;28;20029;-89
2023/12/16 01:05:41;;;;;;;0.20;0.20;;;;;;;4.70;80.68;102896.00;4990100;28;20028;-89
2023/12/16 01:08:07;;;;;;;0.20;0.20;;;;;;;4.72;80.20;102908.84;4973624;28;20033;-89
2023/12/16 01:10:33;;;;;;;0.20;0.20;;;;;;;4.61;80.45;102912.13;4973414;28;20034;-88
2023/12/16 01:12:58;;;;;;;0.20;0.20;;;;;;;4.74;79.95;102922.56;4991176;28;20113;-89
2023/12/16 01:15:24;;;;;;;0.20;0.20;;;;;;;4.65;79.78;102905.38;4957770;28;20077;-89
2023/12/16 01:17:49;;;;;;;0.20;0.20;;;;;;;4.46;80.23;102877.78;4990780;28;20046;-90
2023/12/16 01:20:15;;;;;;;0.20;0.20;;;;;;;4.56;80.60;102898.41;4990853;28;20034;-88
2023/12/16 01:22:41;;;;;;;0.20;0.20;;;;;;;4.63;80.56;102919.88;4973334;28;20117;-88
2023/12/16 01:25:07;;;;;;;0.20;0.20;;;;;;;4.61;80.04;102906.16;4990659;28;20026;-88
2023/12/16 01:27:33;;;;;;;0.20;0.20;;;;;;;4.60;79.81;102910.41;4989911;28;20124;-89
2023/12/16 01:29:58;;;;;;;0.20;0.20;;;;;;;4.73;79.22;102925.97;4990187;28;20393;-89
2023/12/16 01:32:24;;;;;;;0.20;0.20;;;;;;;4.70;78.39;102925.91;4973391;28;20528;-89
2023/12/16 01:34:49;;;;;;;0.20;0.20;;;;;;;4.67;79.02;102918.19;4989923;28;20489;-89
2023/12/16 01:37:15;;;;;;;0.20;0.20;;;;;;;4.65;79.28;102927.56;4989634;28;20421;-88
2023/12/16 01:39:40;;;;;;;0.20;0.20;;;;;;;4.55;78.88;102913.78;4958656;28;20060;-90
2023/12/16 01:42:06;;;;;;;0.20;0.20;;;;;;;4.59;79.24;102941.16;4961062;28;20030;-90
2023/12/16 01:44:32;;;;;;;0.20;0.20;;;;;;;4.57;79.95;102946.28;4994458;28;20037;-88
2023/12/16 01:46:57;;;;;;;0.20;0.20;;;;;;;4.55;79.96;102931.72;4961041;28;20080;-89
2023/12/16 01:49:23;;;;;;;0.20;0.20;;;;;;;4.64;79.99;102938.69;4961079;28;20097;-89
2023/12/16 01:51:48;;;;;;;0.20;0.20;;;;;;;4.73;79.93;102949.91;4976698;28;20030;-88
2023/12/16 01:54:14;;;;;;;0.20;0.20;;;;;;;4.67;79.60;102961.78;4961028;28;20041;-88
2023/12/16 01:56:39;;;;;;;0.20;0.20;;;;;;;4.61;79.32;102948.03;4961060;28;20094;-88
2023/12/16 01:59:05;;;;;;;0.10;0.10;;;;;;;4.73;78.91;102964.44;4976931;28;20531;-88
2023/12/16 02:01:31;;;;;;;0.20;0.20;;;;;;;4.61;79.47;102948.03;4960932;28;20381;-90
2023/12/16 02:03:57;;;;;;;0.20;0.20;;;;;;;4.65;79.63;102959.22;4960753;28;20113;-88
2023/12/16 02:06:22;;;;;;;0.20;0.20;;;;;;;4.56;79.55;102959.94;4960528;28;20559;-89
2023/12/16 02:08:48;;;;;;;0.20;0.20;;;;;;;4.54;79.40;102955.66;4976329;28;20560;-89
2023/12/16 02:11:13;;;;;;;0.20;0.20;;;;;;;4.43;79.93;102952.94;4960637;28;20031;-88
2023/12/16 02:13:42;;;;;;;0.20;0.20;;;;;;;4.63;80.77;102966.03;4960871;28;20069;-88
2023/12/16 02:16:09;;;;;;;0.20;0.20;;;;;;;4.54;80.63;102981.28;4992822;28;20030;-89
2023/12/16 02:18:36;;;;;;;0.20;0.20;;;;;;;4.52;80.99;102973.56;4960877;28;20033;-89
2023/12/16 02:21:02;;;;;;;0.20;0.20;;;;;;;4.53;80.72;102980.41;4960326;28;20408;-88
2023/12/16 02:23:27;;;;;;;0.20;0.20;;;;;;;4.57;80.35;102977.03;4976188;28;20037;-89
2023/12/16 02:25:53;;;;;;;0.20;0.20;;;;;;;4.68;80.24;102991.72;4992703;28;20030;-88
2023/12/16 02:28:18;;;;;;;0.20;0.20;;;;;;;4.45;80.03;102951.25;4976281;28;20089;-88
2023/12/16 02:30:44;;;;;;;0.20;0.20;;;;;;;4.71;80.22;102984.03;4992283;28;20521;-89
2023/12/16 02:33:09;;;;;;;0.20;0.20;;;;;;;4.68;79.84;102992.56;4960169;28;20492;-89
2023/12/16 02:35:35;;;;;;;0.20;0.20;;;;;;;4.77;79.95;103000.38;4976144;28;20652;-90
2023/12/16 02:38:01;;;;;;;0.10;0.10;;;;;;;4.73;80.25;102998.63;4959982;28;20027;-89
2023/12/16 02:40:26;;;;;;;0.20;0.20;;;;;;;4.75;80.74;102999.50;4975762;28;20531;-88
2023/12/16 02:42:52;;;;;;;0.20;0.20;;;;;;;4.72;81.08;103001.16;4960157;28;20438;-89
2023/12/16 02:45:18;;;;;;;0.20;0.20;;;;;;;4.73;80.57;102993.50;4960282;28;20489;-87
2023/12/16 02:47:43;;;;;;;0.20;0.20;;;;;;;4.66;80.70;102991.69;4959918;28;20363;-88
2023/12/16 02:50:09;;;;;;;0.20;0.20;;;;;;;4.61;80.81;103011.25;4975808;28;20507;-88
2023/12/16 02:52:34;;;;;;;0.17;0.17;;;;;;;4.57;81.34;103010.38;4991298;28;20034;-89
2023/12/16 02:55:00;;;;;;;0.20;0.20;;;;;;;4.49;81.59;103021.34;4959919;28;20504;-88
2023/12/16 02:57:26;;;;;;;0.20;0.20;;;;;;;4.60;82.03;103017.22;4991821;28;20460;-88
2023/12/16 02:59:51;;;;;;;0.20;0.20;;;;;;;4.57;81.81;103001.81;4975817;28;20030;-89
2023/12/16 03:02:17;;;;;;;0.20;0.20;;;;;;;4.70;81.72;103013.97;4959162;28;20100;-89
2023/12/16 03:04:43;;;;;;;0.20;0.20;;;;;;;4.63;81.20;103017.31;4975392;28;20031;-90
2023/12/16 03:07:09;;;;;;;0.20;0.20;;;;;;;4.55;80.65;103024.03;4991934;28;20034;-89
2023/12/16 03:09:34;;;;;;;0.20;0.20;;;;;;;4.63;81.44;103032.69;4959540;28;20041;-90
2023/12/16 03:12:00;;;;;;;0.20;0.20;;;;;;;4.67;80.93;103028.44;4975713;28;20112;-89
2023/12/16 03:14:27;;;;;;;0.20;0.20;;;;;;;4.63;80.98;103032.69;4975128;28;20037;-89
2023/12/16 03:16:52;;;;;;;0.20;0.20;;;;;;;4.56;81.02;103036.84;4959343;28;20529;-90
2023/12/16 03:19:18;;;;;;;0.20;0.20;;;;;;;4.54;81.46;103030.84;4959518;28;20030;-91
2023/12/16 03:21:43;;;;;;;0.20;0.20;;;;;;;4.60;81.66;103035.19;4992515;28;20033;-91
2023/12/16 03:24:09;;;;;;;0.20;0.20;;;;;;;4.66;81.77;103048.09;4975324;28;20659;-90
2023/12/16 03:26:34;;;;;;;0.20;0.20;;;;;;;4.50;81.63;103033.31;4975065;28;20049;-89
2023/12/16 03:29:00;;;;;;;0.20;0.20;;;;;;;4.58;81.11;103053.09;4975392;28;20030;-89
2023/12/16 03:31:25;;;;;;;0.20;0.20;;;;;;;4.44;81.55;103025.56;4959138;28;20078;-89
2023/12/16 03:33:53;;;;;;;0.20;0.20;;;;;;;4.54;81.54;103050.50;4991525;28;20033;-89
2023/12/16 03:36:19;;;;;;;0.20;0.20;;;;;;;4.56;81.49;103061.63;4959394;28;20080;-88
2023/12/16 03:38:44;;;;;;;0.20;0.20;;;;;;;4.61;81.39;103063.41;4991332;28;20022;-88
2023/12/16 03:41:11;;;;;;;0.20;0.20;;;;;;;4.54;81.57;103055.63;4974729;28;20033;-89
2023/12/16 03:43:37;;;;;;;0.20;0.20;;;;;;;4.48;81.27;103058.94;4975409;28;20026;-89
2023/12/16 03:46:02;;;;;;;0.20;0.20;;;;;;;4.49;81.29;103049.56;4975006;28;20058;-90
2023/12/16 03:48:28;;;;;;;0.20;0.20;;;;;;;4.54;81.93;103055.63;4991097;28;20037;-91
2023/12/16 03:50:53;;;;;;;0.20;0.20;;;;;;;4.57;82.13;103073.59;4958228;28;20496;-88
2023/12/16 03:53:19;;;;;;;0.20;0.20;;;;;;;4.62;81.49;103077.09;4958535;28;20034;-90
2023/12/16 03:55:44;;;;;;;0.20;0.20;;;;;;;4.41;81.83;103063.94;4958407;28;20027;-89
2023/12/16 03:58:10;;;;;;;0.20;0.20;;;;;;;4.38;82.00;103084.41;4942698;28;20122;-90
2023/12/16 04:00:35;;;;;;;0.20;0.20;;;;;;;4.38;82.67;103090.41;4974366;28;20121;-88
2023/12/16 04:03:01;;;;;;;0.20;0.20;;;;;;;4.40;82.48;103082.72;4958509;28;20065;-89
2023/12/16 04:05:27;;;;;;;0.20;0.20;;;;;;;4.47;82.47;103094.81;4991674;28;20037;-91
2023/12/16 04:07:52;;;;;;;0.20;0.20;;;;;;;4.25;83.12;103081.66;4958910;28;20018;-90
2023/12/16 04:10:18;;;;;;;0.20;0.20;;;;;;;4.40;82.86;103088.72;4958642;28;20037;-88
2023/12/16 04:12:44;;;;;;;0.20;0.20;;;;;;;4.43;82.19;103101.59;4991994;28;20030;-89
2023/12/16 04:15:11;;;;;;;0.20;0.20;;;;;;;4.50;82.16;103103.41;4958617;28;20027;-89
2023/12/16 04:17:36;;;;;;;0.20;0.20;;;;;;;4.57;82.12;103109.50;4958567;28;20466;-91
2023/12/16 04:20:02;;;;;;;0.20;0.20;;;;;;;4.49;81.76;103113.63;4957948;28;20137;-89
2023/12/16 04:22:28;;;;;;;0.20;0.20;;;;;;;4.38;82.19;103102.34;4958643;28;20080;-89
2023/12/16 04:24:57;;;;;;;0.20;0.20;;;;;;;4.32;82.15;103103.97;4958242;28;20031;-88
2023/12/16 04:27:26;;;;;;;0.20;0.20;;;;;;;4.40;82.15;103121.16;4990289;28;20081;-89
2023/12/16 04:29:52;;;;;;;0.20;0.20;;;;;;;4.36;81.47;103120.28;4974730;28;20058;-88
2023/12/16 04:32:17;;;;;;;0.20;0.20;;;;;;;4.32;82.04;103124.47;4958045;28;20081;-89
2023/12/16 04:34:43;;;;;;;0.20;0.20;;;;;;;4.34;82.40;103116.81;4974120;28;20030;-88
2023/12/16 04:37:08;;;;;;;0.20;0.20;;;;;;;4.30;81.96;103115.88;4990371;28;20136;-89
2023/12/16 04:39:34;;;;;;;0.20;0.20;;;;;;;4.40;82.48;103134.00;4958233;28;20057;-90
2023/12/16 04:41:59;;;;;;;0.20;0.20;;;;;;;4.46;81.59;103131.53;4974082;28;20455;-90
2023/12/16 04:44:25;;;;;;;0.20;0.20;;;;;;;4.40;82.68;103134.84;4974115;28;20508;-89
2023/12/16 04:46:50;;;;;;;0.20;0.20;;;;;;;4.38;82.36;103127.97;4958052;28;20476;-90
2023/12/16 04:49:16;;;;;;;0.20;0.20;;;;;;;4.23;81.92;103102.97;4973559;28;20034;-90
2023/12/16 04:51:41;;;;;;;0.20;0.20;;;;;;;4.47;81.71;103143.50;4973997;28;20088;-89
2023/12/16 04:54:07;;;;;;;0.20;0.20;;;;;;;4.41;81.70;103138.28;4974049;28;20026;-89
2023/12/16 04:56:32;;;;;;;0.20;0.20;;;;;;;4.35;81.77;103128.81;4973868;28;20041;-90
2023/12/16 04:58:58;;;;;;;0.20;0.20;;;;;;;4.34;81.27;103151.84;4957650;28;20425;-88
2023/12/16 05:01:24;;;;;;;0.20;0.20;;;;;;;4.19;81.41;103132.78;4973629;28;20085;-90
2023/12/16 05:03:49;;;;;;;0.20;0.20;;;;;;;4.23;81.92;103149.09;4989717;28;20113;-89
2023/12/16 05:06:15;;;;;;;0.20;0.20;;;;;;;4.30;82.30;103156.91;4957764;28;20114;-88
2023/12/16 05:08:40;;;;;;;0.20;0.20;;;;;;;4.32;82.21;103152.66;4973578;28;20508;-89
2023/12/16 05:11:06;;;;;;;0.20;0.20;;;;;;;4.41;81.81;103164.75;4957965;28;20105;-89
2023/12/16 05:13:31;;;;;;;0.20;0.20;;;;;;;4.17;81.77;103124.22;4957668;28;20535;-88
2023/12/16 05:15:57;;;;;;;0.20;0.20;;;;;;;4.26;81.76;103154.25;4977430;28;20035;-89
2023/12/16 05:18:23;;;;;;;0.20;0.20;;;;;;;4.28;81.71;103168.81;4993462;28;20408;-89
2023/12/16 05:20:49;;;;;;;0.20;0.20;;;;;;;4.38;81.79;103174.97;4977812;28;20030;-89
2023/12/16 05:23:14;;;;;;;0.20;0.20;;;;;;;4.45;82.12;103186.22;4961256;28;20037;-89
2023/12/16 05:25:41;;;;;;;0.10;0.10;;;;;;;4.41;82.11;103187.84;4961496;28;20081;-90
2023/12/16 05:28:07;;;;;;;0.20;0.20;;;;;;;4.46;82.04;103193.91;4993786;28;20031;-90
2023/12/16 05:30:32;;;;;;;0.20;0.20;;;;;;;4.49;81.59;103186.28;4961186;28;20428;-89
2023/12/16 05:32:58;;;;;;;0.20;0.20;;;;;;;4.42;81.21;103186.13;4960946;28;20504;-89
2023/12/16 05:35:24;;;;;;;0.20;0.20;;;;;;;4.36;81.43;103176.66;4945474;28;20518;-90
2023/12/16 05:37:49;;;;;;;0.20;0.20;;;;;;;4.44;81.56;103190.47;4977555;28;20488;-89
2023/12/16 05:40:15;;;;;;;0.20;0.20;;;;;;;4.27;81.64;103161.97;4977190;28;20100;-90
2023/12/16 05:42:40;;;;;;;0.20;0.20;;;;;;;4.32;81.72;103178.28;4994543;28;20026;-88
2023/12/16 05:45:07;;;;;;;0.20;0.20;;;;;;;4.30;81.99;103172.28;4961062;28;20181;-88
2023/12/16 05:47:33;;;;;;;0.20;0.20;;;;;;;4.48;82.07;103193.94;4976898;28;20054;-89
2023/12/16 05:49:58;;;;;;;0.20;0.20;;;;;;;4.42;82.14;103204.06;4960985;28;20078;-89
2023/12/16 05:52:24;;;;;;;0.20;0.20;;;;;;;4.38;81.97;103198.03;4960918;28;20042;-89
2023/12/16 05:54:49;;;;;;;0.20;0.20;;;;;;;4.38;82.01;103205.72;4976915;28;20030;-89
2023/12/16 05:57:15;;;;;;;0.10;0.10;;;;;;;4.36;82.57;103201.41;4960630;28;20022;-87
2023/12/16 05:59:40;;;;;;;0.20;0.20;;;;;;;4.14;82.67;103172.84;4960764;28;20037;-89
2023/12/16 06:02:06;;;;;;;0.20;0.20;;;;;;;4.26;82.12;103178.19;4992512;28;20081;-87
2023/12/16 06:04:31;;;;;;;0.20;0.20;;;;;;;4.23;81.81;103175.59;4960597;28;20042;-90
2023/12/16 06:06:57;;;;;;;0.20;0.20;;;;;;;4.31;82.33;103199.63;4960543;28;20030;-89
2023/12/16 06:09:23;;;;;;;0.20;0.20;;;;;;;4.30;81.83;103192.78;4976676;28;20030;-88
2023/12/16 06:11:48;;;;;;;0.20;0.20;;;;;;;4.32;82.47;103201.34;4976673;28;20038;-89
2023/12/16 06:14:14;;;;;;;0.20;0.20;;;;;;;4.17;82.70;103179.72;4960514;28;20026;-89
2023/12/16 06:16:39;;;;;;;0.20;0.20;;;;;;;4.31;82.25;103209.88;4992415;28;20026;-88
2023/12/16 06:19:05;;;;;;;0.20;0.20;;;;;;;4.43;82.01;103218.66;4976374;28;20042;-88
2023/12/16 06:21:30;;;;;;;0.20;0.20;;;;;;;4.46;81.83;103222.13;4960401;28;20026;-89
2023/12/16 06:23:58;;;;;;;0.20;0.20;;;;;;;4.43;81.92;103211.81;4976170;28;20038;-88
2023/12/16 06:26:24;;;;;;;0.20;0.20;;;;;;;4.30;82.71;103194.47;4975365;28;20030;-88
2023/12/16 06:28:49;;;;;;;0.20;0.20;;;;;;;4.49;82.39;103217.03;4976195;28;20412;-90
2023/12/16 06:31:18;;;;;;;0.20;0.20;;;;;;;4.44;82.44;103220.38;4959815;28;20050;-88
2023/12/16 06:33:44;;;;;;;0.20;0.20;;;;;;;4.49;82.34;103229.00;4976581;28;20029;-87
2023/12/16 06:36:09;;;;;;;0.20;0.20;;;;;;;4.55;82.04;103240.22;4975996;28;20062;-88
2023/12/16 06:38:35;;;;;;;0.20;0.20;;;;;;;4.48;82.36;103229.81;4976083;28;20081;-88
2023/12/16 06:41:01;;;;;;;0.20;0.20;;;;;;;4.39;83.00;103227.97;4959935;28;20556;-89
2023/12/16 06:43:27;;;;;;;0.10;0.10;;;;;;;4.44;82.75;103241.75;4960116;28;20175;-89
2023/12/16 06:45:54;;;;;;;0.10;0.10;;;;;;;4.47;82.48;103236.66;4975687;28;20481;-88
2023/12/16 06:48:20;;;;;;;0.20;0.20;;;;;;;4.45;82.62;103237.47;4959898;28;20176;-89
2023/12/16 06:50:45;;;;;;;0.20;0.20;;;;;;;4.65;82.38;103256.63;4959874;28;20101;-88
2023/12/16 06:53:11;;;;;;;0.20;0.20;;;;;;;4.64;82.62;103261.75;4976106;28;20065;-87
2023/12/16 06:55:37;;;;;;;0.20;0.20;;;;;;;4.45;82.40;103247.72;4943709;28;20029;-89
2023/12/16 06:58:03;;;;;;;0.20;0.20;;;;;;;4.62;82.30;103284.75;4993462;28;20055;-89
2023/12/16 07:00:29;;;;;;;0.20;0.20;;;;;;;4.61;82.20;103283.03;4959272;28;20065;-88
2023/12/16 07:02:54;;;;;;;0.20;0.20;;;;;;;4.57;82.24;103288.97;4959619;28;20108;-88
2023/12/16 07:05:20;;;;;;;0.20;0.20;;;;;;;4.58;82.39;103288.13;4991712;28;20250;-89
2023/12/16 07:07:46;;;;;;;0.20;0.20;;;;;;;4.58;82.54;103290.69;4959633;28;20113;-88
2023/12/16 07:10:11;;;;;;;0.20;0.20;;;;;;;4.60;82.67;103297.56;4943449;28;20140;-88
2023/12/16 07:12:37;;;;;;;0.20;0.20;;;;;;;4.65;82.63;103307.91;4959534;28;20031;-87
2023/12/16 07:15:03;;;;;;;0.20;0.20;;;;;;;4.69;82.52;103307.13;4959045;28;20049;-89
2023/12/16 07:17:29;;;;;;;0.20;0.20;;;;;;;4.67;82.65;103301.09;4959385;28;20417;-89
2023/12/16 07:19:55;;;;;;;0.20;0.20;;;;;;;4.75;82.04;103299.56;4992359;28;20027;-88
2023/12/16 07:22:21;;;;;;;0.20;0.20;;;;;;;4.58;82.29;103285.56;4975290;28;20033;-89
2023/12/16 07:24:47;;;;;;;0.20;0.20;;;;;;;4.60;82.37;103299.25;4975390;28;20035;-88
2023/12/16 07:27:12;;;;;;;0.20;0.20;;;;;;;4.67;82.62;103301.09;4958959;28;20030;-88
2023/12/16 07:29:38;;;;;;;0.20;0.20;;;;;;;4.65;82.82;103299.38;4942868;28;20033;-88
2023/12/16 07:32:03;;;;;;;0.20;0.20;;;;;;;4.72;82.85;103314.00;4958854;28;20053;-90
2023/12/16 07:34:29;;;;;;;0.20;0.20;;;;;;;4.74;82.72;103313.22;4959063;28;20030;-88
2023/12/16 07:36:55;;;;;;;0.20;0.20;;;;;;;4.74;82.73;103314.91;4958894;28;20085;-89
2023/12/16 07:39:20;;;;;;;0.20;0.20;;;;;;;4.75;83.02;103317.50;4991078;28;20030;-90
2023/12/16 07:41:46;;;;;;;0.20;0.20;;;;;;;4.72;82.22;103303.75;4958357;28;20069;-88
2023/12/16 07:44:12;;;;;;;0.20;0.20;;;;;;;4.77;82.20;103312.41;4958396;28;20117;-89
2023/12/16 07:46:39;;;;;;;0.20;0.20;;;;;;;4.68;82.20;103312.22;4974491;28;20032;-88
2023/12/16 07:49:05;;;;;;;0.20;0.20;;;;;;;4.72;82.51;103308.88;4958811;28;20030;-89
2023/12/16 07:51:30;;;;;;;0.20;0.20;;;;;;;4.69;82.12;103299.44;4958981;28;20480;-91
2023/12/16 07:53:56;;;;;;;0.20;0.20;;;;;;;4.80;81.61;103322.69;4990977;28;20050;-88
2023/12/16 07:56:23;;;;;;;0.20;0.20;;;;;;;4.80;82.06;103326.13;4991850;28;20096;-86
2023/12/16 07:58:51;;;;;;;0.20;0.20;;;;;;;4.81;82.29;103327.84;4958996;28;20512;-89
2023/12/16 08:01:17;;;;;;;0.20;0.20;;;;;;;4.89;81.28;103338.25;4958527;28;20034;-88
2023/12/16 08:03:43;;;;;;;0.20;0.20;;;;;;;4.92;81.38;103337.44;4974689;28;20594;-88
2023/12/16 08:06:09;;;;;;;0.20;0.20;;;;;;;4.82;81.77;103337.31;4974474;28;20398;-88
2023/12/16 08:08:38;;;;;;;0.20;0.20;;;;;;;4.83;81.74;103322.78;4974321;28;20030;-88
2023/12/16 08:11:04;;;;;;;0.20;0.20;;;;;;;4.98;81.53;103341.00;4958054;28;20411;-89
2023/12/16 08:13:30;;;;;;;0.20;0.20;;;;;;;4.98;81.34;103348.69;4974545;28;20026;-88
2023/12/16 08:15:56;;;;;;;0.20;0.20;;;;;;;4.97;81.51;103348.66;4974141;28;20038;-88
2023/12/16 08:18:22;;;;;;;0.20;0.20;;;;;;;4.91;81.65;103346.84;4974211;28;20034;-88
2023/12/16 08:20:47;;;;;;;0.20;0.20;;;;;;;4.90;82.10;103343.41;4974160;28;20041;-89
2023/12/16 08:23:13;;;;;;;0.20;0.20;;;;;;;4.99;81.92;103354.69;4974283;28;20432;-88
2023/12/16 08:25:39;;;;;;;0.20;0.20;;;;;;;4.94;81.21;103339.22;4974027;28;20157;-89
2023/12/16 08:28:04;;;;;;;0.20;0.20;;;;;;;4.95;81.15;103340.94;4974004;28;20388;-89
2023/12/16 08:30:30;;;;;;;0.20;0.20;;;;;;;5.04;81.51;103347.94;4990114;28;20112;-88
2023/12/16 08:32:55;;;;;;;0.20;0.20;;;;;;;5.07;81.17;103348.00;4955245;28;20137;-88
2023/12/16 08:35:21;;;;;;;0.20;0.20;;;;;;;4.99;81.20;103349.56;4970903;28;20031;-87
2023/12/16 08:37:46;;;;;;;0.20;0.20;;;;;;;5.02;81.50;103354.75;4970630;28;20041;-89
2023/12/16 08:40:12;;;;;;;0.20;0.20;;;;;;;5.04;82.04;103358.22;4954368;28;20035;-88
2023/12/16 08:42:41;;;;;;;0.20;0.20;;;;;;;4.98;82.15;103358.09;4954671;28;20042;-87
2023/12/16 08:45:07;;;;;;;0.20;0.20;;;;;;;5.10;81.67;103369.41;4955033;28;21214;-86
2023/12/16 08:47:32;;;;;;;0.20;0.20;;;;;;;5.13;80.88;103364.38;4971704;28;20473;-86
2023/12/16 08:49:58;;;;;;;0.20;0.20;;;;;;;5.07;81.27;103355.69;4954080;28;20038;-87
2023/12/16 08:52:24;;;;;;;0.20;0.20;;;;;;;5.06;81.29;103349.69;4971469;28;20034;-87
2023/12/16 08:54:49;;;;;;;0.20;0.20;;;;;;;5.04;81.40;103355.63;4970219;28;20034;-87
2023/12/16 08:57:15;;;;;;;0.20;0.20;;;;;;;4.95;80.94;103327.25;4971813;28;20034;-87
2023/12/16 08:59:40;;;;;;;0.20;0.20;;;;;;;5.07;80.67;103351.41;4970519;28;20038;-88
2023/12/16 09:02:06;;;;;;;0.20;0.20;;;;;;;5.04;80.47;103332.56;4938661;28;20027;-87
2023/12/16 09:04:32;;;;;;;0.20;0.20;;;;;;;5.08;80.36;103349.72;4970532;28;20409;-87
2023/12/16 09:06:57;;;;;;;0.20;0.20;;;;;;;5.07;79.50;103353.13;4970847;28;20049;-87
2023/12/16 09:09:23;;;;;;;0.20;0.20;;;;;;;5.07;80.27;103353.13;4971597;28;20027;-88
2023/12/16 09:11:48;;;;;;;0.20;0.20;;;;;;;5.04;79.93;103327.41;4954249;28;20035;-87
2023/12/16 09:14:14;;;;;;;0.20;0.20;;;;;;;5.12;80.16;103330.97;4970414;28;20165;-89
2023/12/16 09:16:40;;;;;;;0.20;0.20;;;;;;;5.19;79.40;103341.34;4954590;28;20509;-89
2023/12/16 09:19:07;;;;;;;0.20;0.20;;;;;;;5.10;78.65;103332.63;4954542;28;20026;-87
2023/12/16 09:21:33;;;;;;;0.20;0.20;;;;;;;5.14;79.01;103325.03;4954696;28;20153;-89
2023/12/16 09:23:59;;;;;;;0.20;0.20;;;;;;;5.17;79.02;103319.06;4938295;28;20046;-87
2023/12/16 09:26:25;;;;;;;0.20;0.20;;;;;;;5.12;80.31;103315.59;4970264;28;20408;-87
2023/12/16 09:28:51;;;;;;;0.20;0.20;;;;;;;5.25;80.08;103327.78;4970499;28;20031;-88
2023/12/16 09:31:16;;;;;;;0.20;0.20;;;;;;;5.31;80.11;103327.88;4954240;28;20047;-88
2023/12/16 09:33:42;;;;;;;0.20;0.20;;;;;;;5.07;79.08;103287.28;4954607;28;20033;-88
2023/12/16 09:36:12;;;;;;;0.20;0.20;;;;;;;5.34;79.68;103334.75;4970361;28;20119;-87
2023/12/16 09:38:38;;;;;;;0.20;0.20;;;;;;;5.39;78.85;103335.69;4969846;28;20031;-87
2023/12/16 09:41:04;;;;;;;0.20;0.20;;;;;;;5.39;79.00;103333.97;4953914;28;20416;-88
2023/12/16 09:43:32;;;;;;;0.20;0.20;;;;;;;5.42;77.87;103336.59;4970364;28;20472;-88
2023/12/16 09:45:57;;;;;;;0.20;0.20;;;;;;;5.39;78.21;103330.53;4938489;28;20098;-88
2023/12/16 09:48:23;;;;;;;0.20;0.20;;;;;;;5.42;78.06;103349.44;4954176;28;20019;-88
2023/12/16 09:50:48;;;;;;;0.20;0.20;;;;;;;5.44;77.95;103342.63;4937983;28;20031;-88
2023/12/16 09:53:14;;;;;;;0.20;0.20;;;;;;;5.44;78.51;103345.19;4953565;28;20054;-86
2023/12/16 09:55:40;;;;;;;0.20;0.20;;;;;;;5.35;78.32;103345.03;4953982;28;20035;-87
2023/12/16 09:58:06;;;;;;;0.20;0.20;;;;;;;5.34;78.11;103343.31;4953998;28;20061;-87
2023/12/16 10:00:32;;;;;;;0.20;0.20;;;;;;;5.35;77.46;103345.03;4955304;28;20066;-88
2023/12/16 10:02:57;;;;;;;0.20;0.20;;;;;;;5.33;77.84;103341.59;4957393;28;20041;-86
2023/12/16 10:05:26;;;;;;;0.20;0.20;;;;;;;5.40;77.90;103338.25;4973546;28;20027;-86
2023/12/16 10:08:00;;;;;;;0.20;0.20;;;;;;;5.13;78.07;103313.03;4957425;28;20031;-87
2023/12/16 10:10:26;;;;;;;0.20;0.20;;;;;;;5.31;77.45;103337.25;4957494;28;20101;-89
2023/12/16 10:12:52;;;;;;;0.20;0.20;;;;;;;5.42;78.29;103352.00;4973396;28;20074;-88
2023/12/16 10:15:33;;;;;;;0.20;0.20;;;;;;;5.28;78.61;103338.06;4957301;28;20039;-88
2023/12/16 10:18:02;;;;;;;0.20;0.20;;;;;;;5.39;79.44;103351.06;4973104;28;20030;-87
2023/12/16 10:20:28;;;;;;;0.20;0.20;;;;;;;5.43;79.36;103361.44;4957548;28;20062;-87
2023/12/16 10:22:54;;;;;;;0.20;0.20;;;;;;;5.28;79.57;103345.78;4973023;28;20039;-89
2023/12/16 10:25:19;;;;;;;0.20;0.20;;;;;;;5.22;79.26;103322.59;4957068;28;20085;-86
2023/12/16 10:27:46;;;;;;;0.20;0.20;;;;;;;5.32;78.96;103352.72;4973252;28;20030;-87
2023/12/16 10:30:11;;;;;;;0.20;0.20;;;;;;;5.18;78.86;103326.78;4973464;28;20181;-87
2023/12/16 10:32:40;;;;;;;0.20;0.20;;;;;;;5.32;78.50;103345.00;4956703;28;20505;-89
2023/12/16 10:35:07;;;;;;;0.20;0.20;;;;;;;5.36;78.74;103348.47;4973044;28;20055;-87
2023/12/16 10:37:32;;;;;;;0.20;0.20;;;;;;;5.42;78.24;103361.41;4956799;28;20034;-88
2023/12/16 10:39:58;;;;;;;0.20;0.20;;;;;;;5.44;78.63;103363.16;4956568;28;20031;-87
2023/12/16 10:42:24;;;;;;;0.20;0.20;;;;;;;5.33;78.47;103341.59;4956693;28;20034;-87
2023/12/16 10:44:51;;;;;;;0.20;0.20;;;;;;;5.42;77.88;103362.28;4973066;28;20059;-88
2023/12/16 10:47:17;;;;;;;0.20;0.20;;;;;;;5.36;78.27;103367.31;4956909;28;20023;-87
2023/12/16 10:49:45;;;;;;;0.20;0.20;;;;;;;5.34;78.70;103361.28;4973061;28;20026;-87
2023/12/16 10:52:12;;;;;;;0.20;0.20;;;;;;;5.36;77.88;103357.03;4956445;28;20035;-88
2023/12/16 10:54:41;;;;;;;0.20;0.20;;;;;;;5.45;78.28;103364.88;4956529;28;20077;-89
2023/12/16 10:57:09;;;;;;;0.20;0.20;;;;;;;5.46;77.72;103374.31;4972726;28;20557;-87
2023/12/16 10:59:38;;;;;;;0.20;0.20;;;;;;;5.33;78.88;103367.25;4974030;28;20061;-88
2023/12/16 11:02:03;;;;;;;0.20;0.20;;;;;;;5.43;78.91;103358.88;4956945;28;20092;-87
2023/12/16 11:04:32;;;;;;;0.20;0.20;;;;;;;5.33;77.73;103357.00;4956012;28;20034;-89
2023/12/16 11:07:06;;;;;;;0.20;0.20;;;;;;;5.38;78.07;103359.63;4955976;28;20027;-87
2023/12/16 11:09:32;;;;;;;0.20;0.20;;;;;;;5.23;78.60;103344.00;4972577;28;20488;-87
2023/12/16 11:12:00;;;;;;;0.20;0.20;;;;;;;5.28;78.09;103342.34;4955509;28;20121;-88
2023/12/16 11:14:26;;;;;;;0.20;0.20;;;;;;;5.33;78.35;103374.09;4972173;28;20393;-86
2023/12/16 11:16:58;;;;;;;0.20;0.20;;;;;;;5.33;78.53;103372.41;4956179;28;20035;-89
2023/12/16 11:19:27;;;;;;;0.17;0.17;;;;;;;5.36;77.46;103385.28;4971775;28;20121;-86
2023/12/16 11:21:53;;;;;;;0.20;0.20;;;;;;;5.33;77.42;103387.81;4955870;28;20026;-88
2023/12/16 11:24:19;;;;;;;0.20;0.20;;;;;;;5.34;77.47;103386.09;4955928;28;20129;-87
2023/12/16 11:26:50;;;;;;;0.20;0.20;;;;;;;5.16;78.38;103340.44;4956002;28;20043;-88